sensor_id;sensor_type;location;lat;lon;timestamp;pressure;altitude;pressure_sealevel;temperature;humidity
71948;BME280;63257;55.082;38.772;2023-02-28T00:00:25;100448.69;;;-6.50;72.16
71948;BME280;63257;55.082;38.772;2023-02-28T00:02:51;100434.84;;;-6.57;71.97
71948;BME280;63257;55.082;38.772;2023-02-28T00:05:19;100422.72;;;-6.62;72.70
71948;BME280;63257;55.082;38.772;2023-02-28T00:07:46;100412.16;;;-6.75;72.57
71948;BME280;63257;55.082;38.772;2023-02-28T00:10:14;100434.03;;;-6.56;72.38
71948;BME280;63257;55.082;38.772;2023-02-28T00:12:41;100405.50;;;-6.67;72.34
71948;BME280;63257;55.082;38.772;2023-02-28T00:15:09;100412.25;;;-6.72;72.40
71948;BME280;63257;55.082;38.772;2023-02-28T00:17:36;100425.97;;;-6.70;72.63
71948;BME280;63257;55.082;38.772;2023-02-28T00:20:03;100414.69;;;-6.76;73.04
71948;BME280;63257;55.082;38.772;2023-02-28T00:22:42;100404.28;;;-6.83;73.09
71948;BME280;63257;55.082;38.772;2023-02-28T00:25:11;100404.19;;;-6.86;72.75
71948;BME280;63257;55.082;38.772;2023-02-28T00:27:39;100421.53;;;-6.77;73.00
71948;BME280;63257;55.082;38.772;2023-02-28T00:30:06;100363.91;;;-7.23;73.32
71948;BME280;63257;55.082;38.772;2023-02-28T00:32:34;100390.22;;;-6.97;73.06
71948;BME280;63257;55.082;38.772;2023-02-28T00:35:01;100408.22;;;-6.95;73.59
71948;BME280;63257;55.082;38.772;2023-02-28T00:37:29;100404.59;;;-7.04;73.40
71948;BME280;63257;55.082;38.772;2023-02-28T00:39:56;100385.00;;;-7.02;73.39
71948;BME280;63257;55.082;38.772;2023-02-28T00:42:22;100377.88;;;-7.12;73.18
71948;BME280;63257;55.082;38.772;2023-02-28T00:44:48;100387.34;;;-7.09;73.74
71948;BME280;63257;55.082;38.772;2023-02-28T00:47:14;100399.56;;;-7.01;74.23
71948;BME280;63257;55.082;38.772;2023-02-28T00:49:40;100401.22;;;-7.03;73.63
71948;BME280;63257;55.082;38.772;2023-02-28T00:52:08;100400.19;;;-7.09;73.96
71948;BME280;63257;55.082;38.772;2023-02-28T00:54:34;100396.75;;;-7.10;74.22
71948;BME280;63257;55.082;38.772;2023-02-28T00:57:00;100395.06;;;-7.09;74.31
71948;BME280;63257;55.082;38.772;2023-02-28T00:59:26;100374.25;;;-7.20;74.52
71948;BME280;63257;55.082;38.772;2023-02-28T01:01:52;100368.38;;;-7.16;74.57
71948;BME280;63257;55.082;38.772;2023-02-28T01:04:21;100355.31;;;-7.25;74.07
71948;BME280;63257;55.082;38.772;2023-02-28T01:06:47;100377.13;;;-7.08;74.49
71948;BME280;63257;55.082;38.772;2023-02-28T01:09:12;100378.72;;;-7.13;74.56
71948;BME280;63257;55.082;38.772;2023-02-28T01:11:42;100367.53;;;-7.15;74.58
71948;BME280;63257;55.082;38.772;2023-02-28T01:14:17;100359.91;;;-7.12;74.96
71948;BME280;63257;55.082;38.772;2023-02-28T01:16:45;100359.09;;;-7.11;74.82
71948;BME280;63257;55.082;38.772;2023-02-28T01:19:11;100365.97;;;-7.10;74.97
71948;BME280;63257;55.082;38.772;2023-02-28T01:21:38;100363.56;;;-7.02;74.67
71948;BME280;63257;55.082;38.772;2023-02-28T01:24:05;100365.66;;;-6.87;74.10
71948;BME280;63257;55.082;38.772;2023-02-28T01:26:35;100352.97;;;-6.81;73.81
71948;BME280;63257;55.082;38.772;2023-02-28T01:29:01;100343.69;;;-6.76;73.41
71948;BME280;63257;55.082;38.772;2023-02-28T01:31:27;100360.28;;;-6.61;73.09
71948;BME280;63257;55.082;38.772;2023-02-28T01:33:53;100353.34;;;-6.66;73.20
71948;BME280;63257;55.082;38.772;2023-02-28T01:36:24;100357.47;;;-6.71;73.35
71948;BME280;63257;55.082;38.772;2023-02-28T01:38:51;100332.47;;;-6.79;73.33
71948;BME280;63257;55.082;38.772;2023-02-28T01:41:23;100326.25;;;-6.89;74.44
71948;BME280;63257;55.082;38.772;2023-02-28T01:46:15;100338.69;;;-6.70;73.75
71948;BME280;63257;55.082;38.772;2023-02-28T01:51:22;100334.41;;;-6.69;73.83
71948;BME280;63257;55.082;38.772;2023-02-28T01:53:54;100258.28;;;-7.05;73.11
71948;BME280;63257;55.082;38.772;2023-02-28T01:56:28;100333.97;;;-6.51;72.91
71948;BME280;63257;55.082;38.772;2023-02-28T01:58:55;100322.88;;;-6.49;72.36
71948;BME280;63257;55.082;38.772;2023-02-28T02:01:23;100323.75;;;-6.50;72.20
71948;BME280;63257;55.082;38.772;2023-02-28T02:04:01;100318.63;;;-6.48;72.06
71948;BME280;63257;55.082;38.772;2023-02-28T02:06:40;100324.59;;;-6.49;72.09
71948;BME280;63257;55.082;38.772;2023-02-28T02:09:10;100310.66;;;-6.60;72.66
71948;BME280;63257;55.082;38.772;2023-02-28T02:11:37;100316.81;;;-6.54;72.04
71948;BME280;63257;55.082;38.772;2023-02-28T02:25:04;100297.88;;;-6.57;72.14
71948;BME280;63257;55.082;38.772;2023-02-28T02:34:08;100277.38;;;-6.54;71.50
71948;BME280;63257;55.082;38.772;2023-02-28T02:37:08;100271.44;;;-6.53;71.24
71948;BME280;63257;55.082;38.772;2023-02-28T02:40:04;100272.38;;;-6.50;71.25
71948;BME280;63257;55.082;38.772;2023-02-28T02:45:14;100256.75;;;-6.59;71.37
71948;BME280;63257;55.082;38.772;2023-02-28T02:47:46;100264.41;;;-6.62;71.33
71948;BME280;63257;55.082;38.772;2023-02-28T02:50:28;100242.72;;;-6.75;71.50
71948;BME280;63257;55.082;38.772;2023-02-28T02:53:00;100260.91;;;-6.64;71.12
71948;BME280;63257;55.082;38.772;2023-02-28T02:55:31;100251.53;;;-6.63;71.29
71948;BME280;63257;55.082;38.772;2023-02-28T02:58:02;100256.47;;;-6.73;71.00
71948;BME280;63257;55.082;38.772;2023-02-28T03:00:39;100242.03;;;-6.68;70.99
71948;BME280;63257;55.082;38.772;2023-02-28T03:03:10;100242.88;;;-6.69;70.75
71948;BME280;63257;55.082;38.772;2023-02-28T03:05:50;100235.13;;;-6.70;70.64
71948;BME280;63257;55.082;38.772;2023-02-28T03:08:17;100245.38;;;-6.72;70.67
71948;BME280;63257;55.082;38.772;2023-02-28T03:10:45;100196.72;;;-7.05;71.06
71948;BME280;63257;55.082;38.772;2023-02-28T03:13:42;100240.03;;;-6.81;70.81
71948;BME280;63257;55.082;38.772;2023-02-28T03:16:22;100234.97;;;-6.76;70.67
71948;BME280;63257;55.082;38.772;2023-02-28T03:27:09;100175.59;;;-6.93;70.41
71948;BME280;63257;55.082;38.772;2023-02-28T03:29:47;100191.31;;;-6.78;70.59
71948;BME280;63257;55.082;38.772;2023-02-28T03:32:29;100166.16;;;-6.94;70.75
71948;BME280;63257;55.082;38.772;2023-02-28T03:35:05;100182.53;;;-6.89;70.51
71948;BME280;63257;55.082;38.772;2023-02-28T03:37:35;100166.94;;;-6.99;70.95
71948;BME280;63257;55.082;38.772;2023-02-28T03:40:08;100171.28;;;-6.94;70.58
71948;BME280;63257;55.082;38.772;2023-02-28T03:42:41;100166.09;;;-6.97;70.73
71948;BME280;63257;55.082;38.772;2023-02-28T03:45:15;100149.88;;;-6.96;70.72
71948;BME280;63257;55.082;38.772;2023-02-28T03:47:51;100167.84;;;-6.96;70.94
71948;BME280;63257;55.082;38.772;2023-02-28T03:50:24;100164.50;;;-6.92;70.73
71948;BME280;63257;55.082;38.772;2023-02-28T03:52:58;100155.63;;;-7.07;70.73
71948;BME280;63257;55.082;38.772;2023-02-28T03:55:32;100157.38;;;-7.06;71.12
71948;BME280;63257;55.082;38.772;2023-02-28T03:58:24;100153.09;;;-7.05;70.66
71948;BME280;63257;55.082;38.772;2023-02-28T04:01:01;100158.94;;;-7.12;71.07
71948;BME280;63257;55.082;38.772;2023-02-28T04:03:36;100126.38;;;-7.15;71.08
71948;BME280;63257;55.082;38.772;2023-02-28T04:06:04;100142.50;;;-7.21;71.47
71948;BME280;63257;55.082;38.772;2023-02-28T04:08:31;100136.63;;;-7.15;71.67
71948;BME280;63257;55.082;38.772;2023-02-28T04:11:11;100135.63;;;-7.22;71.46
71948;BME280;63257;55.082;38.772;2023-02-28T04:13:38;100135.75;;;-7.17;71.25
71948;BME280;63257;55.082;38.772;2023-02-28T04:16:07;100118.41;;;-7.27;71.17
71948;BME280;63257;55.082;38.772;2023-02-28T04:18:41;100120.28;;;-7.20;71.38
71948;BME280;63257;55.082;38.772;2023-02-28T04:21:12;100120.28;;;-7.20;71.41
71948;BME280;63257;55.082;38.772;2023-02-28T04:23:38;100108.22;;;-7.24;71.34
71948;BME280;63257;55.082;38.772;2023-02-28T04:26:04;100106.31;;;-7.35;71.65
71948;BME280;63257;55.082;38.772;2023-02-28T04:28:32;100117.59;;;-7.26;71.57
71948;BME280;63257;55.082;38.772;2023-02-28T04:31:00;100090.78;;;-7.39;71.59
71948;BME280;63257;55.082;38.772;2023-02-28T04:33:31;100089.00;;;-7.43;71.76
71948;BME280;63257;55.082;38.772;2023-02-28T04:36:06;100097.88;;;-7.29;71.62
71948;BME280;63257;55.082;38.772;2023-02-28T04:38:35;100100.41;;;-7.30;71.61
71948;BME280;63257;55.082;38.772;2023-02-28T04:41:02;100084.69;;;-7.46;71.89
71948;BME280;63257;55.082;38.772;2023-02-28T04:43:30;100077.78;;;-7.48;71.78
71948;BME280;63257;55.082;38.772;2023-02-28T04:45:57;100091.16;;;-7.24;71.16
71948;BME280;63257;55.082;38.772;2023-02-28T04:48:25;100082.41;;;-7.32;71.51
71948;BME280;63257;55.082;38.772;2023-02-28T04:50:51;100080.09;;;-7.21;71.42
71948;BME280;63257;55.082;38.772;2023-02-28T04:53:17;100041.19;;;-7.41;71.29
71948;BME280;63257;55.082;38.772;2023-02-28T04:55:43;100072.50;;;-7.15;71.16
71948;BME280;63257;55.082;38.772;2023-02-28T04:58:10;100073.50;;;-7.08;70.76
71948;BME280;63257;55.082;38.772;2023-02-28T05:00:36;100056.38;;;-7.08;70.85
71948;BME280;63257;55.082;38.772;2023-02-28T05:03:01;100057.41;;;-7.00;70.29
71948;BME280;63257;55.082;38.772;2023-02-28T05:05:28;100040.16;;;-7.07;69.88
71948;BME280;63257;55.082;38.772;2023-02-28T05:07:54;100030.63;;;-7.14;70.06
71948;BME280;63257;55.082;38.772;2023-02-28T05:10:21;100045.38;;;-7.02;70.02
71948;BME280;63257;55.082;38.772;2023-02-28T05:12:47;100052.28;;;-7.00;69.64
71948;BME280;63257;55.082;38.772;2023-02-28T05:15:14;100053.97;;;-7.00;70.07
71948;BME280;63257;55.082;38.772;2023-02-28T05:17:40;100039.34;;;-7.06;69.95
71948;BME280;63257;55.082;38.772;2023-02-28T05:20:09;100045.53;;;-6.94;69.91
71948;BME280;63257;55.082;38.772;2023-02-28T05:22:39;100031.69;;;-7.03;69.51
71948;BME280;63257;55.082;38.772;2023-02-28T05:25:06;100014.47;;;-7.08;69.67
71948;BME280;63257;55.082;38.772;2023-02-28T05:27:32;100029.41;;;-6.87;69.44
71948;BME280;63257;55.082;38.772;2023-02-28T05:29:58;100003.47;;;-7.03;68.63
71948;BME280;63257;55.082;38.772;2023-02-28T05:32:30;100008.97;;;-6.83;69.03
71948;BME280;63257;55.082;38.772;2023-02-28T05:34:56;100003.59;;;-6.96;68.71
71948;BME280;63257;55.082;38.772;2023-02-28T05:37:22;100015.88;;;-6.80;68.56
71948;BME280;63257;55.082;38.772;2023-02-28T05:39:48;100000.38;;;-6.85;68.46
71948;BME280;63257;55.082;38.772;2023-02-28T05:42:13;99999.69;;;-6.76;68.13
71948;BME280;63257;55.082;38.772;2023-02-28T05:44:39;99994.69;;;-6.67;67.88
71948;BME280;63257;55.082;38.772;2023-02-28T05:47:05;99987.13;;;-6.60;67.64
71948;BME280;63257;55.082;38.772;2023-02-28T05:49:31;99986.22;;;-6.61;67.22
71948;BME280;63257;55.082;38.772;2023-02-28T05:51:57;99955.25;;;-6.72;67.41
71948;BME280;63257;55.082;38.772;2023-02-28T05:54:23;99972.66;;;-6.55;66.90
71948;BME280;63257;55.082;38.772;2023-02-28T05:56:49;99965.03;;;-6.49;66.68
71948;BME280;63257;55.082;38.772;2023-02-28T05:59:15;99962.44;;;-6.51;66.57
71948;BME280;63257;55.082;38.772;2023-02-28T06:01:45;99957.53;;;-6.37;66.06
71948;BME280;63257;55.082;38.772;2023-02-28T06:04:16;99955.09;;;-6.27;65.48
71948;BME280;63257;55.082;38.772;2023-02-28T06:06:46;99941.34;;;-6.31;64.51
71948;BME280;63257;55.082;38.772;2023-02-28T06:09:12;99926.81;;;-6.31;64.52
71948;BME280;63257;55.082;38.772;2023-02-28T06:11:38;99922.59;;;-6.24;64.13
71948;BME280;63257;55.082;38.772;2023-02-28T06:14:04;99929.69;;;-6.07;64.01
71948;BME280;63257;55.082;38.772;2023-02-28T06:16:32;99931.44;;;-6.05;63.40
71948;BME280;63257;55.082;38.772;2023-02-28T06:19:03;99928.06;;;-5.99;62.73
71948;BME280;63257;55.082;38.772;2023-02-28T06:21:30;99919.53;;;-5.95;62.74
71948;BME280;63257;55.082;38.772;2023-02-28T06:23:57;99903.97;;;-6.09;62.48
71948;BME280;63257;55.082;38.772;2023-02-28T06:26:24;99914.44;;;-5.93;62.68
71948;BME280;63257;55.082;38.772;2023-02-28T06:28:51;99896.50;;;-5.89;61.52
71948;BME280;63257;55.082;38.772;2023-02-28T06:31:17;99910.44;;;-5.70;61.44
71948;BME280;63257;55.082;38.772;2023-02-28T06:33:45;99876.13;;;-5.72;61.03
71948;BME280;63257;55.082;38.772;2023-02-28T06:36:13;99897.72;;;-5.57;60.60
71948;BME280;63257;55.082;38.772;2023-02-28T06:38:39;99892.63;;;-5.54;59.95
71948;BME280;63257;55.082;38.772;2023-02-28T06:41:07;99850.47;;;-5.67;59.81
71948;BME280;63257;55.082;38.772;2023-02-28T06:43:39;99854.88;;;-5.55;59.96
71948;BME280;63257;55.082;38.772;2023-02-28T06:46:08;99838.75;;;-5.40;60.28
71948;BME280;63257;55.082;38.772;2023-02-28T06:48:35;99867.97;;;-5.34;59.85
71948;BME280;63257;55.082;38.772;2023-02-28T06:51:05;99845.63;;;-5.38;60.06
71948;BME280;63257;55.082;38.772;2023-02-28T06:53:32;99825.16;;;-5.27;60.29
71948;BME280;63257;55.082;38.772;2023-02-28T06:55:57;99820.91;;;-5.22;59.88
71948;BME280;63257;55.082;38.772;2023-02-28T06:58:23;99815.09;;;-4.98;59.61
71948;BME280;63257;55.082;38.772;2023-02-28T07:00:52;99814.22;;;-4.98;58.54
71948;BME280;63257;55.082;38.772;2023-02-28T07:03:19;99807.44;;;-4.88;58.44
71948;BME280;63257;55.082;38.772;2023-02-28T07:05:45;99803.25;;;-4.74;58.47
71948;BME280;63257;55.082;38.772;2023-02-28T07:08:11;99808.34;;;-4.80;57.41
71948;BME280;63257;55.082;38.772;2023-02-28T07:10:38;99815.19;;;-4.85;57.72
71948;BME280;63257;55.082;38.772;2023-02-28T07:13:05;99793.78;;;-4.77;57.18
71948;BME280;63257;55.082;38.772;2023-02-28T07:15:31;99788.72;;;-4.63;56.80
71948;BME280;63257;55.082;38.772;2023-02-28T07:17:58;99777.59;;;-4.62;56.31
71948;BME280;63257;55.082;38.772;2023-02-28T07:20:24;99786.16;;;-4.56;56.00
71948;BME280;63257;55.082;38.772;2023-02-28T07:22:50;99775.09;;;-4.38;55.93
71948;BME280;63257;55.082;38.772;2023-02-28T07:25:26;99768.97;;;-4.61;55.69
71948;BME280;63257;55.082;38.772;2023-02-28T07:27:53;99759.56;;;-4.51;55.55
71948;BME280;63257;55.082;38.772;2023-02-28T07:30:20;99757.06;;;-4.43;55.55
71948;BME280;63257;55.082;38.772;2023-02-28T07:32:48;99750.22;;;-4.33;55.13
71948;BME280;63257;55.082;38.772;2023-02-28T07:35:14;99744.25;;;-4.18;54.70
71948;BME280;63257;55.082;38.772;2023-02-28T07:37:43;99709.06;;;-4.10;54.24
71948;BME280;63257;55.082;38.772;2023-02-28T07:40:11;99726.28;;;-4.00;54.28
71948;BME280;63257;55.082;38.772;2023-02-28T07:42:39;99676.38;;;-4.22;53.76
71948;BME280;63257;55.082;38.772;2023-02-28T07:45:07;99688.44;;;-4.05;53.06
71948;BME280;63257;55.082;38.772;2023-02-28T07:47:33;99685.03;;;-3.97;53.00
71948;BME280;63257;55.082;38.772;2023-02-28T07:50:00;99743.50;;;-3.79;52.58
71948;BME280;63257;55.082;38.772;2023-02-28T07:52:27;99660.94;;;-4.20;53.00
71948;BME280;63257;55.082;38.772;2023-02-28T07:54:53;99654.03;;;-4.18;52.61
71948;BME280;63257;55.082;38.772;2023-02-28T07:57:19;99638.63;;;-3.87;52.65
71948;BME280;63257;55.082;38.772;2023-02-28T07:59:47;99642.06;;;-3.85;51.95
71948;BME280;63257;55.082;38.772;2023-02-28T08:02:17;99704.81;;;-3.28;51.82
71948;BME280;63257;55.082;38.772;2023-02-28T08:04:46;99679.03;;;-3.21;51.52
71948;BME280;63257;55.082;38.772;2023-02-28T08:07:14;99649.78;;;-3.42;50.65
71948;BME280;63257;55.082;38.772;2023-02-28T08:09:43;99629.13;;;-3.37;50.56
71948;BME280;63257;55.082;38.772;2023-02-28T08:12:09;99666.06;;;-3.04;50.96
71948;BME280;63257;55.082;38.772;2023-02-28T08:14:37;99669.44;;;-2.76;50.43
71948;BME280;63257;55.082;38.772;2023-02-28T08:17:05;99635.84;;;-2.75;50.19
71948;BME280;63257;55.082;38.772;2023-02-28T08:19:31;99655.59;;;-2.60;49.89
71948;BME280;63257;55.082;38.772;2023-02-28T08:21:57;99638.31;;;-2.48;49.78
71948;BME280;63257;55.082;38.772;2023-02-28T08:24:23;99647.72;;;-2.35;49.32
71948;BME280;63257;55.082;38.772;2023-02-28T08:26:49;99656.25;;;-2.22;49.62
71948;BME280;63257;55.082;38.772;2023-02-28T08:29:15;99642.31;;;-2.01;49.54
71948;BME280;63257;55.082;38.772;2023-02-28T08:31:42;99657.69;;;-1.79;48.78
71948;BME280;63257;55.082;38.772;2023-02-28T08:34:11;99626.91;;;-2.15;49.39
71948;BME280;63257;55.082;38.772;2023-02-28T08:36:39;99645.00;;;-2.13;49.72
71948;BME280;63257;55.082;38.772;2023-02-28T08:39:05;99646.72;;;-2.14;49.93
71948;BME280;63257;55.082;38.772;2023-02-28T08:41:33;99643.28;;;-2.14;50.64
71948;BME280;63257;55.082;38.772;2023-02-28T08:43:59;99636.38;;;-2.12;50.20
71948;BME280;63257;55.082;38.772;2023-02-28T08:46:25;99621.66;;;-2.04;50.53
71948;BME280;63257;55.082;38.772;2023-02-28T08:48:52;99646.72;;;-2.12;50.67
71948;BME280;63257;55.082;38.772;2023-02-28T08:51:19;99624.28;;;-2.09;50.41
71948;BME280;63257;55.082;38.772;2023-02-28T08:53:53;99628.47;;;-1.95;51.08
71948;BME280;63257;55.082;38.772;2023-02-28T08:56:20;99643.19;;;-2.03;50.65
71948;BME280;63257;55.082;38.772;2023-02-28T08:58:47;99631.19;;;-2.11;51.25
71948;BME280;63257;55.082;38.772;2023-02-28T09:01:32;99640.66;;;-2.10;51.49
71948;BME280;63257;55.082;38.772;2023-02-28T09:03:58;99655.25;;;-1.98;51.18
71948;BME280;63257;55.082;38.772;2023-02-28T09:06:25;99571.78;;;-2.22;51.45
71948;BME280;63257;55.082;38.772;2023-02-28T09:08:59;99591.47;;;-2.05;52.21
71948;BME280;63257;55.082;38.772;2023-02-28T09:11:28;99538.16;;;-2.20;51.64
71948;BME280;63257;55.082;38.772;2023-02-28T09:13:54;99529.59;;;-2.30;51.68
71948;BME280;63257;55.082;38.772;2023-02-28T09:16:21;99534.56;;;-2.03;51.59
71948;BME280;63257;55.082;38.772;2023-02-28T09:18:47;99577.53;;;-1.82;51.54
71948;BME280;63257;55.082;38.772;2023-02-28T09:21:15;99596.34;;;-1.66;51.88
71948;BME280;63257;55.082;38.772;2023-02-28T09:23:45;99531.84;;;-1.86;51.93
71948;BME280;63257;55.082;38.772;2023-02-28T09:26:17;99541.22;;;-1.76;51.50
71948;BME280;63257;55.082;38.772;2023-02-28T09:28:46;99486.25;;;-1.98;51.60
71948;BME280;63257;55.082;38.772;2023-02-28T09:31:17;99544.59;;;-1.68;51.58
71948;BME280;63257;55.082;38.772;2023-02-28T09:33:54;99465.28;;;-1.69;51.41
71948;BME280;63257;55.082;38.772;2023-02-28T09:36:23;99456.16;;;-1.28;50.28
71948;BME280;63257;55.082;38.772;2023-02-28T09:38:53;99470.44;;;-1.00;50.05
71948;BME280;63257;55.082;38.772;2023-02-28T09:41:22;99470.00;;;-0.68;49.97
71948;BME280;63257;55.082;38.772;2023-02-28T09:43:53;99486.94;;;0.06;48.83
71948;BME280;63257;55.082;38.772;2023-02-28T09:46:36;99496.97;;;-0.24;48.91
71948;BME280;63257;55.082;38.772;2023-02-28T09:49:07;99483.47;;;0.07;48.73
71948;BME280;63257;55.082;38.772;2023-02-28T09:51:52;99478.38;;;0.01;48.34
71948;BME280;63257;55.082;38.772;2023-02-28T09:54:24;99460.72;;;-0.27;48.54
71948;BME280;63257;55.082;38.772;2023-02-28T09:56:53;99462.19;;;0.35;48.81
71948;BME280;63257;55.082;38.772;2023-02-28T09:59:29;99496.34;;;0.13;48.60
71948;BME280;63257;55.082;38.772;2023-02-28T10:04:49;99482.75;;;0.46;48.01
71948;BME280;63257;55.082;38.772;2023-02-28T10:10:22;99469.22;;;0.74;47.57
71948;BME280;63257;55.082;38.772;2023-02-28T10:12:54;99470.59;;;0.90;47.36
71948;BME280;63257;55.082;38.772;2023-02-28T10:15:23;99447.91;;;0.56;47.74
71948;BME280;63257;55.082;38.772;2023-02-28T10:17:54;99435.81;;;0.57;47.83
71948;BME280;63257;55.082;38.772;2023-02-28T10:20:24;99481.44;;;0.68;48.36
71948;BME280;63257;55.082;38.772;2023-02-28T10:23:21;99460.06;;;0.56;49.20
71948;BME280;63257;55.082;38.772;2023-02-28T10:25:59;99436.78;;;0.51;48.56
71948;BME280;63257;55.082;38.772;2023-02-28T10:28:29;99441.31;;;0.41;48.58
71948;BME280;63257;55.082;38.772;2023-02-28T10:30:55;99418.00;;;0.38;49.45
71948;BME280;63257;55.082;38.772;2023-02-28T10:35:50;99390.97;;;0.48;48.30
71948;BME280;63257;55.082;38.772;2023-02-28T10:38:22;99395.44;;;0.42;49.16
71948;BME280;63257;55.082;38.772;2023-02-28T10:40:50;99349.69;;;0.36;49.17
71948;BME280;63257;55.082;38.772;2023-02-28T10:48:38;99354.25;;;0.23;50.34
71948;BME280;63257;55.082;38.772;2023-02-28T10:51:07;99364.97;;;0.06;50.89
71948;BME280;63257;55.082;38.772;2023-02-28T10:53:37;99397.88;;;0.49;50.24
71948;BME280;63257;55.082;38.772;2023-02-28T11:01:34;99363.81;;;1.01;50.01
71948;BME280;63257;55.082;38.772;2023-02-28T11:04:00;99366.22;;;0.71;50.75
71948;BME280;63257;55.082;38.772;2023-02-28T11:06:30;99368.38;;;0.52;51.61
71948;BME280;63257;55.082;38.772;2023-02-28T11:09:04;99370.03;;;0.55;52.16
71948;BME280;63257;55.082;38.772;2023-02-28T11:11:43;99375.56;;;0.39;52.65
71948;BME280;63257;55.082;38.772;2023-02-28T11:14:30;99271.00;;;-0.08;53.59
71948;BME280;63257;55.082;38.772;2023-02-28T11:17:18;99323.97;;;0.24;54.25
71948;BME280;63257;55.082;38.772;2023-02-28T11:20:18;99313.31;;;-0.05;55.00
71948;BME280;63257;55.082;38.772;2023-02-28T11:22:52;99309.78;;;-0.02;54.88
71948;BME280;63257;55.082;38.772;2023-02-28T11:25:34;99327.19;;;-0.07;55.85
71948;BME280;63257;55.082;38.772;2023-02-28T11:28:02;99276.25;;;-0.57;56.34
71948;BME280;63257;55.082;38.772;2023-02-28T11:30:37;99331.66;;;-0.15;56.03
71948;BME280;63257;55.082;38.772;2023-02-28T11:46:47;99333.34;;;-0.13;56.95
71948;BME280;63257;55.082;38.772;2023-02-28T11:49:22;99308.25;;;-0.11;55.95
71948;BME280;63257;55.082;38.772;2023-02-28T11:54:49;99344.38;;;0.00;56.66
71948;BME280;63257;55.082;38.772;2023-02-28T11:57:36;99330.47;;;0.01;56.49
71948;BME280;63257;55.082;38.772;2023-02-28T12:00:38;99351.16;;;0.06;56.77
71948;BME280;63257;55.082;38.772;2023-02-28T12:06:28;99325.69;;;-0.19;56.87
71948;BME280;63257;55.082;38.772;2023-02-28T12:09:27;99355.34;;;-0.32;57.23
71948;BME280;63257;55.082;38.772;2023-02-28T12:20:21;99306.06;;;-0.32;58.50
71948;BME280;63257;55.082;38.772;2023-02-28T12:25:59;99313.56;;;-0.65;58.89
71948;BME280;63257;55.082;38.772;2023-02-28T12:28:35;99319.06;;;-0.84;59.22
71948;BME280;63257;55.082;38.772;2023-02-28T12:33:36;99351.59;;;-0.64;60.29
71948;BME280;63257;55.082;38.772;2023-02-28T12:36:11;99322.22;;;-0.66;60.28
71948;BME280;63257;55.082;38.772;2023-02-28T12:38:47;99282.06;;;-0.92;60.01
71948;BME280;63257;55.082;38.772;2023-02-28T12:41:18;99296.50;;;-0.77;60.73
71948;BME280;63257;55.082;38.772;2023-02-28T12:44:09;99295.72;;;-0.81;61.50
71948;BME280;63257;55.082;38.772;2023-02-28T12:46:41;99286.09;;;-0.74;61.49
71948;BME280;63257;55.082;38.772;2023-02-28T12:49:16;99299.66;;;-0.60;61.71
71948;BME280;63257;55.082;38.772;2023-02-28T12:51:45;99278.16;;;-0.66;61.43
71948;BME280;63257;55.082;38.772;2023-02-28T12:54:22;99276.41;;;-0.64;62.27
71948;BME280;63257;55.082;38.772;2023-02-28T12:57:11;99280.63;;;-0.59;62.68
71948;BME280;63257;55.082;38.772;2023-02-28T12:59:55;99293.91;;;-0.77;63.88
71948;BME280;63257;55.082;38.772;2023-02-28T13:10:16;99270.81;;;-0.91;65.99
71948;BME280;63257;55.082;38.772;2023-02-28T13:12:50;99271.91;;;-1.05;66.27
71948;BME280;63257;55.082;38.772;2023-02-28T13:17:48;99291.91;;;-1.11;67.74
71948;BME280;63257;55.082;38.772;2023-02-28T13:20:27;99249.63;;;-1.13;68.23
71948;BME280;63257;55.082;38.772;2023-02-28T13:22:55;99272.09;;;-1.17;68.46
71948;BME280;63257;55.082;38.772;2023-02-28T13:28:12;99249.59;;;-1.12;69.09
71948;BME280;63257;55.082;38.772;2023-02-28T13:33:31;99249.69;;;-1.16;69.29
71948;BME280;63257;55.082;38.772;2023-02-28T13:38:55;99245.22;;;-1.08;69.83
71948;BME280;63257;55.082;38.772;2023-02-28T13:44:08;99226.31;;;-1.13;69.81
71948;BME280;63257;55.082;38.772;2023-02-28T13:57:53;99198.75;;;-1.17;70.03
71948;BME280;63257;55.082;38.772;2023-02-28T14:03:31;99159.47;;;-1.41;70.07
71948;BME280;63257;55.082;38.772;2023-02-28T14:06:09;99174.72;;;-1.26;70.06
71948;BME280;63257;55.082;38.772;2023-02-28T14:08:47;99177.25;;;-1.23;70.07
71948;BME280;63257;55.082;38.772;2023-02-28T14:11:27;99192.06;;;-1.31;70.55
71948;BME280;63257;55.082;38.772;2023-02-28T14:13:54;99170.34;;;-1.22;70.74
71948;BME280;63257;55.082;38.772;2023-02-28T14:16:22;99165.44;;;-1.39;71.23
71948;BME280;63257;55.082;38.772;2023-02-28T14:22:35;99171.41;;;-1.34;72.11
71948;BME280;63257;55.082;38.772;2023-02-28T14:25:11;99136.47;;;-1.60;72.81
71948;BME280;63257;55.082;38.772;2023-02-28T14:38:43;99138.94;;;-1.52;73.81
71948;BME280;63257;55.082;38.772;2023-02-28T14:43:58;99142.09;;;-1.34;73.67
71948;BME280;63257;55.082;38.772;2023-02-28T14:46:38;99156.63;;;-1.27;73.85
71948;BME280;63257;55.082;38.772;2023-02-28T14:49:35;99146.41;;;-1.35;73.79
71948;BME280;63257;55.082;38.772;2023-02-28T14:52:21;99140.34;;;-1.34;73.73
71948;BME280;63257;55.082;38.772;2023-02-28T14:54:59;99133.63;;;-1.44;74.21
71948;BME280;63257;55.082;38.772;2023-02-28T14:57:27;99137.75;;;-1.34;74.26
71948;BME280;63257;55.082;38.772;2023-02-28T15:00:21;99140.19;;;-1.25;73.46
71948;BME280;63257;55.082;38.772;2023-02-28T15:02:47;99141.19;;;-1.33;74.19
71948;BME280;63257;55.082;38.772;2023-02-28T15:07:47;99121.13;;;-1.21;74.91
71948;BME280;63257;55.082;38.772;2023-02-28T15:10:27;99127.91;;;-1.15;74.32
71948;BME280;63257;55.082;38.772;2023-02-28T15:12:56;99101.31;;;-1.23;74.24
71948;BME280;63257;55.082;38.772;2023-02-28T15:18:35;99114.06;;;-1.12;74.61
71948;BME280;63257;55.082;38.772;2023-02-28T15:21:15;99110.03;;;-1.27;74.34
71948;BME280;63257;55.082;38.772;2023-02-28T15:23:45;99116.72;;;-1.17;74.32
71948;BME280;63257;55.082;38.772;2023-02-28T15:26:15;99107.41;;;-1.26;75.36
71948;BME280;63257;55.082;38.772;2023-02-28T15:28:43;99104.78;;;-1.24;75.80
71948;BME280;63257;55.082;38.772;2023-02-28T15:31:40;99115.00;;;-1.16;75.94